Nearby METAR Reports

 

LGBL - Nea Anchialos, Greece
Distance from station: SW 15km
Updated: 01/05/2016 21:50
Mostly cloudy
Mostly cloudy
 Wind from ESE
Wind: ESE 9 km/h
Temperature: 16°C
Dew Point: 10°C
Humidity: 68%
Barometer: 1014 hPa
Clouds: Mostly cloudy
Visibility: 10 km
Cloud details: Few Clouds 1219 m
Mostly cloudy 2743 m
Mostly cloudy 5486 m
2016/05/01 18:50 LGBL 011850Z 12005KT 9999 FEW040 BKN090 BKN180 16/10 Q1014 NOSIG
LGSK - Skiathos Island, Greece
Distance from station: ESE 51km
Updated: 01/05/2016 20:50
NOT Current
Mostly cloudy
Mostly cloudy
 Wind from calm
Wind: Calm
Temperature: 17°C
Dew Point: 9°C
Humidity: 59%
Barometer: 1015 hPa
Clouds: Mostly cloudy
Visibility: 10 km
Cloud details: Few Clouds 914 m
Mostly cloudy 2743 m
Mostly cloudy 5486 m
2016/05/01 17:50 LGSK 011750Z 00000KT 9999 FEW030 BKN090 BKN180 17/09 Q1015
 
LGTS - Thessaloniki/Mik, Greece
Distance from station: N 135km
Updated: 01/05/2016 21:50
Mostly cloudy
Mostly cloudy
 Wind from E
Wind: E 7 km/h
Temperature: 16°C
Dew Point: 11°C
Humidity: 72%
Barometer: 1015 hPa
Clouds: Mostly cloudy
Visibility: 10 km
Cloud details: Few Clouds 549 m
Mostly cloudy 2134 m
2016/05/01 18:50 LGTS 011850Z 09004KT 9999 FEW018 BKN070 16/11 Q1015 NOSIG
LGSY - Skiros, Greece
Distance from station: ESE 139km
Updated: 01/05/2016 20:20
NOT Current
Clear
Clear
 Wind from N
Wind: N 7 km/h
Temperature: 17°C
Dew Point: 10°C
Humidity: 64%
Barometer: 1013 hPa
Summary: Clear
Visibility: greater than 10 km
2016/05/01 17:20 LGSY 011720Z 35004KT CAVOK 17/10 Q1013 RMK FEW080 BKN180 BLU
 
LGKZ - Kozani (civ/Army, Greece
Distance from station: NW 144km
Updated: 01/05/2016 14:50
NOT Current
Mostly cloudy
Mostly cloudy
 Wind from ESE
Wind: ESE 19 km/h
Temperature: 19°C
Dew Point: 8°C
Humidity: 49%
Barometer: 1016 hPa
Clouds: Mostly cloudy
Visibility: 10 km
Cloud details: Partly cloudy 762 m
Partly cloudy 2134 m
Mostly cloudy 5486 m
2016/05/01 11:50 LGKZ 011150Z 11010KT 9999 SCT025 SCT070 BKN180 19/08 Q1016
LGEL - Elefsis (hel-Afb, Greece
Distance from station: SSE 147km
Updated: 01/05/2016 21:50
Mostly cloudy
Mostly cloudy
 Wind from varies
Wind: varies 6 km/h
Temperature: 19°C
Dew Point: 4°C
Humidity: 37%
Barometer: 1013 hPa
Clouds: Mostly cloudy
Visibility: 10 km
Cloud details: Few Clouds 914 m
Mostly cloudy 5486 m
2016/05/01 18:50 LGEL 011850Z VRB03KT 9999 FEW030 BKN180 19/04 Q1013
 
LGAV - Athens/Elef-Ven, Greece
Distance from station: SSE 176km
Updated: 01/05/2016 21:50
Few Clouds
Few Clouds
 Wind from varies
Wind: varies 6 km/h
Temperature: 17°C
Dew Point: 4°C
Humidity: 42%
Barometer: 1015 hPa
Clouds: Few Clouds
Visibility: 10 km
Cloud details: Few Clouds 762 m
2016/05/01 18:50 LGAV 011850Z VRB03KT 9999 FEW025 17/04 Q1015 NOSIG
LGRX - Araxos (civ/Afb), Greece
Distance from station: SW 182km
Updated: 01/05/2016 21:50
Mostly cloudy
Mostly cloudy
 Wind from WNW
Wind: WNW 6 km/h
Temperature: 18°C
Dew Point: 15°C
Humidity: 83%
Barometer: 1012 hPa
Clouds: Mostly cloudy
Visibility: 10 km
Cloud details: Few Clouds 762 m
Mostly cloudy 2438 m
2016/05/01 18:50 LGRX 011850Z 30003KT 9999 FEW025 BKN080 18/15 Q1012
 
LGIO - Ioannina, Greece
Distance from station: WNW 187km
Updated: 01/05/2016 21:50
Light rain
Light rain
 Wind from varies
Wind: varies 0 km/h
Temperature: 14°C
Dew Point: 13°C
Humidity: 94%
Barometer: 1013 hPa
Summary: Light rain
2016/05/01 18:50 LGIO 011850Z AUTO /////KT //// -RA ////// 14/13 Q1013 RE//
LGPZ - Preveza/Aktion, Greece
Distance from station: WSW 191km
Updated: 01/05/2016 21:50
Drizzle, Overcast
Drizzle, Overcast
 Wind from W
Wind: W 17 km/h
Temperature: 17°C
Dew Point: 15°C
Humidity: 88%
Barometer: 1013 hPa
Summary: Drizzle
Clouds: Overcast
Visibility: 10 km
Cloud details: Partly cloudy 762 m
Mostly cloudy 2438 m
Overcast 5486 m
2016/05/01 18:50 LGPZ 011850Z 26009KT 9999 DZ SCT025 BKN080 OVC180 17/15 Q1013 RERA
 
LGLM - Limnos Island Ar, Greece
Distance from station: ENE 209km
Updated: 01/05/2016 21:50
Clear
Clear
 Wind from ENE
Wind: ENE 22 km/h
Temperature: 16°C
Dew Point: 10°C
Humidity: 68%
Barometer: 1014 hPa
Summary: Clear
Visibility: greater than 10 km
2016/05/01 18:50 LGLM 011850Z 07012KT CAVOK 16/10 Q1014
LGAD - Andravida (civ/A, Greece
Distance from station: SW 211km
Updated: 01/05/2016 21:50
Mostly cloudy
Mostly cloudy
 Wind from calm
Wind: Calm
Temperature: 17°C
Dew Point: 13°C
Humidity: 77%
Barometer: 1012 hPa
Clouds: Mostly cloudy
Visibility: 10 km
Cloud details: Few Clouds 762 m
Mostly cloudy 2438 m
Mostly cloudy 5486 m
2016/05/01 18:50 LGAD 011850Z 00000KT 9999 FEW025 BKN080 BKN180 17/13 Q1012
 
LGKV - Kavala/Chrisoupo, Greece
Distance from station: NE 230km
Updated: 01/05/2016 21:50
Few Clouds
Few Clouds
 Wind from ENE
Wind: ENE 7 km/h
Temperature: 16°C
Dew Point: 11°C
Humidity: 72%
Barometer: 1015 hPa
Clouds: Few Clouds
Visibility: 10 km
Cloud details: Few Clouds 762 m
2016/05/01 18:50 LGKV 011850Z 06004KT 9999 FEW025 16/11 Q1015
LGKF - Kefallinia, Greece
Distance from station: WSW 249km
Updated: 01/05/2016 20:50
NOT Current
Light thunderstorm, Rain, Mostly cloudy
Light thunderstorm, Rain, Mostly cloudy
 Wind from NW
Wind: NW 17 km/h
Temperature: 17°C
Dew Point: 16°C
Humidity: 94%
Barometer: 1013 hPa
Summary: Light thunderstorm, Rain
Clouds: Mostly cloudy
Visibility: 10 km
Cloud details: Few Clouds 488 m
Mostly cloudy 610 m
Mostly cloudy 2438 m
2016/05/01 17:50 LGKF 011750Z 32009KT 9999 -TSRA FEW016CB BKN020 BKN080 17/16 Q1013
 
LGZA - Zakinthos Airpor, Greece
Distance from station: SW 249km
Updated: 01/05/2016 20:50
NOT Current
Mostly cloudy
Mostly cloudy
 Wind from varies
Wind: varies 6 km/h
Temperature: 18°C
Dew Point: 16°C
Humidity: 88%
Barometer: 1013 hPa
Clouds: Mostly cloudy
Visibility: 10 km
Cloud details: Partly cloudy 549 m
Partly cloudy 762 m
Mostly cloudy 2438 m
2016/05/01 17:50 LGZA 011750Z VRB03KT 9999 SCT018 SCT025 BKN080 18/16 Q1013
LGKL - Kalamata (hel-Af, Greece
Distance from station: SSW 261km
Updated: 01/05/2016 21:50
Partly cloudy
Partly cloudy
 Wind from calm
Wind: Calm
Temperature: 15°C
Dew Point: 11°C
Humidity: 77%
Barometer: 1011 hPa
Clouds: Partly cloudy
Visibility: 10 km
Cloud details: Partly cloudy 914 m
2016/05/01 18:50 LGKL 011850Z 00000KT 9999 SCT030 15/11 Q1011
 
LGKR - Ioannis Kapodist, Greece
Distance from station: W 261km
Updated: 01/05/2016 21:50
Mostly cloudy
Mostly cloudy
 Wind from calm
Wind: Calm
Temperature: 14°C
Dew Point: 13°C
Humidity: 94%
Barometer: 1013 hPa
Clouds: Mostly cloudy
Visibility: 10 km
Cloud details: Few Clouds 427 m
Partly cloudy 762 m
Mostly cloudy 2438 m
2016/05/01 18:50 LGKR 011850Z 00000KT 9999 FEW014 SCT025 BKN080 14/13 Q1013 NOSIG
LGSO - Syros, Greece
Distance from station: SE 274km
Updated: 01/05/2016 21:50

 Wind from N
Wind: N 11 km/h
Temperature: 17°C
Dew Point: 9°C
Humidity: 59%
Barometer: 1014 hPa
2016/05/01 18:50 LGSO 011850Z AUTO 36006KT 320V040 //// // ////// 17/09 Q1014 RE//
 
LGMK - Mikonos Island, Greece
Distance from station: SE 296km
Updated: 01/05/2016 21:50
Mostly cloudy
Mostly cloudy
 Wind from N
Wind: N 24 km/h
Temperature: 16°C
Dew Point: 12°C
Humidity: 77%
Barometer: 1013 hPa
Clouds: Mostly cloudy
Visibility: 10 km
Cloud details: Few Clouds 549 m
Mostly cloudy 2743 m
Mostly cloudy 5486 m
2016/05/01 18:50 LGMK 011850Z 01013KT 9999 FEW018 BKN090 BKN180 16/12 Q1013